Risingdale, Massachusetts
Current Conditions -  °F | °C
As of 7:54 PM on Monday 20 Oct 2014 (Local Time) from KPSF Reporting Station
Scattered Clouds Scattered Clouds  
Wind Chill: 46°   Ceiling: Unl
Heat Index: 46°   Visibility: 10mi
Dew Point: 35°   Wind: 0mph
Humidity: 66%   Direction: NA
Pressure: 29.95"   Gusts: NA
Location:  42.1779°N, 73.3332°W
Report Text: KPSF 202354Z AUTO 00000KT 10SM SCT120 08/02 A2995 RMK AO2 SLP143 T00780017 10106 20072 53003
Loading
Personal Weather Stations






























Interactive Weather Map
Tropical Storm Tracking
New forecast layout! Learn more

10-Day Weather Forecast

Advertisements
Track Severe Weather on mobile